Startpagina
METAR-TAF:

METAR-TAF

Vliegvelden :

Wallis, Frankrijk

breedte: 13-14S, lengte: 176-10W, hoogte: 23 m

METAR: ontbreekt

Tijdstip: 04:03 (16:03 UTC)

Verwachting

Dit bericht is 5 uur en het 3 minuten geleden gemaakt, om 11:00 UTC
Verwachting geldig van 15 om 12 UTC tot 16 om 12 UTC
Wind 6 kt uit het oosten
Zicht 10 km of meer
Weinig wolken op 2000 ft

TAF: NLWW 151100Z 1512/1612 10006KT 9999 FEW020

Waarnemingen en weersverwachtingen van meer dan 4000 vliegvelden (METAR en TAF).

De beschikbare stations zijn de gele en rode punten op de kaart.

Ga met uw muis naar het station om de naam te zien.

Klik dan om waarnemingen en weersverwachtingen te zien.

kaart wijzigen: klik op de groene knoppen met een zwart kruis om in te zoomen, op de groene knop met een streepje om uit te zoomen of op de groene pijlen voor aangrenzende kaarten.


METAR-TAF: